Time;durP1;ratioP1;P1;durP2;ratioP2;P2;SDS_P1;SDS_P2;PMS_P1;PMS_P2;Temp;Humidity;BMP_temperature;BMP_pressure;BME280_temperature;BME280_humidity;BME280_pressure;Samples;Min_cycle;Max_cycle;Signal;HPM_P1;HPM_P2
2021/12/12 00:00:31;;;;;;;93.10;41.17;;;3.40;99.90;;;;;;4982599;28;20552;-66
2021/12/12 00:03:03;;;;;;;99.45;39.83;;;3.40;99.90;;;;;;4970314;28;20092;-64
2021/12/12 00:05:50;;;;;;;90.22;41.65;;;3.50;99.90;;;;;;4981701;28;20047;-64
2021/12/12 00:08:23;;;;;;;87.50;40.92;;;3.50;99.90;;;;;;4986132;28;20052;-65
2021/12/12 00:10:55;;;;;;;86.57;40.25;;;3.50;99.90;;;;;;4997737;28;20590;-65
2021/12/12 00:13:27;;;;;;;78.38;39.30;;;3.50;99.90;;;;;;4981117;28;20129;-66
2021/12/12 00:15:53;;;;;;;86.38;39.10;;;3.50;99.90;;;;;;4981825;28;20046;-64
2021/12/12 00:18:18;;;;;;;86.78;39.92;;;3.50;99.90;;;;;;4987040;28;20514;-65
2021/12/12 00:20:46;;;;;;;80.30;39.03;;;3.50;99.90;;;;;;4981411;28;20170;-65
2021/12/12 00:23:12;;;;;;;84.20;39.13;;;3.60;99.90;;;;;;5002564;28;20112;-64
2021/12/12 00:25:46;;;;;;;85.70;39.63;;;3.60;99.90;;;;;;4980577;28;20125;-64
2021/12/12 00:28:15;;;;;;;85.90;39.83;;;3.60;99.90;;;;;;4981052;28;20419;-64
2021/12/12 00:30:43;;;;;;;81.95;38.83;;;3.60;99.90;;;;;;4986082;28;20108;-66
2021/12/12 00:33:09;;;;;;;81.68;38.53;;;3.60;99.90;;;;;;4981301;28;20584;-64
2021/12/12 00:35:36;;;;;;;77.00;38.22;;;3.60;99.90;;;;;;4967792;28;20119;-64
2021/12/12 00:38:07;;;;;;;80.78;38.08;;;3.60;99.90;;;;;;4966273;28;20053;-64
2021/12/12 00:40:46;;;;;;;77.22;37.80;;;3.70;99.90;;;;;;4974099;28;20191;-64
2021/12/12 00:43:22;;;;;;;76.63;37.58;;;3.70;99.90;;;;;;4976664;28;20171;-66
2021/12/12 00:45:52;;;;;;;79.05;37.65;;;3.70;99.90;;;;;;4994424;28;20098;-64
2021/12/12 00:48:18;;;;;;;70.65;36.60;;;3.70;99.90;;;;;;4969749;28;20456;-64
2021/12/12 00:50:45;;;;;;;75.00;37.40;;;3.70;99.90;;;;;;4993656;28;20046;-64
2021/12/12 00:53:13;;;;;;;86.63;38.10;;;3.70;99.90;;;;;;4977627;28;20148;-64
2021/12/12 00:55:41;;;;;;;81.50;38.67;;;3.70;99.90;;;;;;4985312;28;20054;-64
2021/12/12 00:58:13;;;;;;;79.78;38.20;;;3.70;99.90;;;;;;4985762;28;20050;-64
2021/12/12 01:00:56;;;;;;;86.97;38.80;;;3.70;99.90;;;;;;4969069;28;20585;-64
2021/12/12 01:03:36;;;;;;;76.40;38.08;;;3.70;99.90;;;;;;4962774;28;20125;-66
2021/12/12 01:06:05;;;;;;;80.95;37.47;;;3.70;99.90;;;;;;4984004;28;20042;-64
2021/12/12 01:08:31;;;;;;;82.75;38.45;;;3.70;99.90;;;;;;4961501;28;20617;-64
2021/12/12 01:11:21;;;;;;;76.13;37.83;;;3.70;99.90;;;;;;4955495;28;20060;-65
2021/12/12 01:13:48;;;;;;;83.20;39.15;;;3.70;99.90;;;;;;4963434;28;20600;-64
2021/12/12 01:16:16;;;;;;;75.50;38.90;;;3.70;99.90;;;;;;4964854;28;20054;-63
2021/12/12 01:18:47;;;;;;;85.63;39.67;;;3.70;99.90;;;;;;4966225;28;20057;-64
2021/12/12 01:21:22;;;;;;;76.40;37.42;;;3.70;99.90;;;;;;4997598;28;20042;-63
2021/12/12 01:23:59;;;;;;;78.07;39.13;;;3.70;99.90;;;;;;4970065;28;20192;-64
2021/12/12 01:26:28;;;;;;;88.65;40.55;;;3.70;99.90;;;;;;4986078;28;20370;-65
2021/12/12 01:28:55;;;;;;;81.22;40.00;;;3.70;99.90;;;;;;4979584;28;20061;-63
2021/12/12 01:31:25;;;;;;;86.35;40.42;;;3.70;99.90;;;;;;4994642;28;20046;-63
2021/12/12 01:34:12;;;;;;;82.45;39.92;;;3.80;99.90;;;;;;4978444;28;20045;-63
2021/12/12 01:37:05;;;;;;;76.68;39.35;;;3.80;99.90;;;;;;4984028;28;20148;-63
2021/12/12 01:39:40;;;;;;;82.43;40.38;;;3.80;99.90;;;;;;4979938;28;20047;-63
2021/12/12 01:42:08;;;;;;;77.47;39.55;;;3.80;99.90;;;;;;4978634;28;20083;-64
2021/12/12 01:45:06;;;;;;;76.25;38.78;;;3.80;99.90;;;;;;4948830;28;20052;-63
2021/12/12 01:47:41;;;;;;;86.00;40.38;;;3.80;99.90;;;;;;4958024;28;20053;-63
2021/12/12 01:50:14;;;;;;;84.28;40.97;;;3.80;99.90;;;;;;4982905;28;20089;-65
2021/12/12 01:52:41;;;;;;;84.22;40.47;;;3.80;99.90;;;;;;4975328;28;20054;-63
2021/12/12 01:55:23;;;;;;;87.97;40.13;;;3.80;99.90;;;;;;4977527;28;20054;-66
2021/12/12 01:57:50;;;;;;;93.50;41.10;;;3.80;99.90;;;;;;4978076;28;20042;-63
2021/12/12 02:00:40;;;;;;;89.18;40.72;;;3.90;99.90;;;;;;4982827;28;20386;-63
2021/12/12 02:03:10;;;;;;;76.57;40.25;;;3.80;99.90;;;;;;4993397;28;20141;-64
2021/12/12 02:05:39;;;;;;;87.03;39.38;;;3.80;99.90;;;;;;4982325;28;20073;-63
2021/12/12 02:08:16;;;;;;;84.97;40.50;;;3.80;99.90;;;;;;4968444;28;20046;-63
2021/12/12 02:10:52;;;;;;;84.68;39.85;;;3.90;99.90;;;;;;4964253;28;20446;-65
2021/12/12 02:13:21;;;;;;;86.25;40.45;;;3.90;99.90;;;;;;4963256;28;20054;-63
2021/12/12 02:15:50;;;;;;;81.80;40.65;;;3.90;99.90;;;;;;4965405;28;20108;-64
2021/12/12 02:18:19;;;;;;;83.15;39.35;;;3.90;99.90;;;;;;4994033;28;20073;-63
2021/12/12 02:37:15;;;;;;;76.65;36.95;;;4.00;99.90;;;;;;4981414;28;20853;-64
2021/12/12 02:39:41;;;;;;;89.88;37.13;;;4.00;99.90;;;;;;4964110;28;20554;-63
2021/12/12 02:42:12;;;;;;;77.97;37.92;;;4.00;99.90;;;;;;4959943;28;20049;-63
2021/12/12 02:44:40;;;;;;;73.82;37.35;;;4.00;99.90;;;;;;4949237;28;20454;-63
2021/12/12 02:47:12;;;;;;;74.38;36.60;;;4.00;99.90;;;;;;4980449;28;20054;-63
2021/12/12 02:49:54;;;;;;;80.03;35.20;;;4.10;99.90;;;;;;4966360;28;21891;-63
2021/12/12 02:52:25;;;;;;;79.47;36.73;;;4.10;99.90;;;;;;4981831;28;20115;-63
2021/12/12 02:54:52;;;;;;;75.95;36.33;;;4.10;99.90;;;;;;4972369;28;20166;-63
2021/12/12 02:57:19;;;;;;;82.03;36.40;;;4.10;99.90;;;;;;4986095;28;20507;-63
2021/12/12 02:59:49;;;;;;;71.57;35.03;;;4.10;99.90;;;;;;4966456;28;20481;-63
2021/12/12 03:02:28;;;;;;;81.35;37.33;;;4.10;99.90;;;;;;4984780;28;20042;-63
2021/12/12 03:05:00;;;;;;;83.05;36.35;;;4.10;99.90;;;;;;4968184;28;20042;-63
2021/12/12 03:07:26;;;;;;;78.88;35.72;;;4.10;99.90;;;;;;4998422;28;20489;-64
2021/12/12 03:09:58;;;;;;;70.03;34.42;;;4.10;99.90;;;;;;4979684;28;20045;-64
2021/12/12 03:12:33;;;;;;;75.57;35.20;;;4.20;99.90;;;;;;4982161;28;20536;-64
2021/12/12 03:15:23;;;;;;;79.32;34.83;;;4.20;99.90;;;;;;4983131;28;20396;-63
2021/12/12 03:17:51;;;;;;;72.75;34.08;;;4.20;99.90;;;;;;4971673;28;20145;-64
2021/12/12 03:20:31;;;;;;;70.38;32.88;;;4.30;99.90;;;;;;4985794;28;20048;-63
2021/12/12 03:23:26;;;;;;;73.20;33.50;;;4.20;99.90;;;;;;4996260;28;20414;-63
2021/12/12 03:25:59;;;;;;;70.47;32.90;;;4.30;99.90;;;;;;4978056;28;20101;-63
2021/12/12 03:28:29;;;;;;;68.00;32.28;;;4.30;99.90;;;;;;4995786;28;20449;-63
2021/12/12 03:30:57;;;;;;;66.32;32.78;;;4.30;99.90;;;;;;4995886;28;20497;-63
2021/12/12 03:33:24;;;;;;;71.60;32.38;;;4.30;99.90;;;;;;4987034;28;20081;-63
2021/12/12 03:35:54;;;;;;;67.93;30.48;;;4.30;99.90;;;;;;4957525;28;20301;-64
2021/12/12 03:38:23;;;;;;;54.95;30.88;;;4.40;99.90;;;;;;4984005;28;20046;-65
2021/12/12 03:40:49;;;;;;;56.60;29.50;;;4.40;99.90;;;;;;4969843;28;20053;-64
2021/12/12 03:43:16;;;;;;;58.33;28.73;;;4.40;99.90;;;;;;4997190;28;20037;-63
2021/12/12 03:45:43;;;;;;;57.78;28.20;;;4.50;99.90;;;;;;4986165;28;20968;-63
2021/12/12 03:48:21;;;;;;;64.28;29.50;;;4.50;99.90;;;;;;4982621;28;20141;-63
2021/12/12 03:50:49;;;;;;;62.20;29.90;;;4.50;99.90;;;;;;4972001;28;20057;-63
2021/12/12 03:53:15;;;;;;;53.53;26.70;;;4.50;99.90;;;;;;4997323;28;20508;-63
2021/12/12 03:55:43;;;;;;;53.25;27.45;;;4.60;99.90;;;;;;4983413;28;20120;-64
2021/12/12 03:58:10;;;;;;;52.67;27.40;;;4.60;99.90;;;;;;4970300;28;20054;-65
2021/12/12 04:00:39;;;;;;;49.33;25.83;;;4.60;99.90;;;;;;4996453;28;20061;-63
2021/12/12 04:03:05;;;;;;;50.60;26.42;;;4.60;99.90;;;;;;4981476;28;20382;-63
2021/12/12 04:05:31;;;;;;;44.50;25.95;;;4.70;99.90;;;;;;4987179;28;20038;-63
2021/12/12 04:07:57;;;;;;;47.22;25.90;;;4.70;99.90;;;;;;4980923;28;20046;-64
2021/12/12 04:10:25;;;;;;;40.40;23.00;;;4.70;99.90;;;;;;4984918;28;20127;-64
2021/12/12 04:12:53;;;;;;;51.33;24.52;;;4.70;99.90;;;;;;4965266;28;20104;-64
2021/12/12 04:15:19;;;;;;;42.38;23.63;;;4.70;99.90;;;;;;4951718;28;20050;-63
2021/12/12 04:17:46;;;;;;;42.05;22.85;;;4.80;99.90;;;;;;4964741;28;20140;-65
2021/12/12 04:20:19;;;;;;;42.92;22.45;;;4.80;99.90;;;;;;4983690;28;20054;-64
2021/12/12 04:22:45;;;;;;;;;;;4.80;99.90;;;;;;4982730;28;20042;-63
2021/12/12 04:25:12;;;;;;;40.38;20.95;;;4.80;99.90;;;;;;4949034;28;20416;-64
2021/12/12 04:27:38;;;;;;;41.83;22.10;;;4.80;99.90;;;;;;4954338;28;20049;-63
2021/12/12 04:30:06;;;;;;;39.45;22.58;;;4.70;99.90;;;;;;4982099;28;20091;-65
2021/12/12 04:32:32;;;;;;;35.58;20.77;;;4.80;99.90;;;;;;4983945;28;20050;-63
2021/12/12 04:35:06;;;;;;;32.72;20.55;;;4.80;99.90;;;;;;4964939;28;20057;-64
2021/12/12 04:37:32;;;;;;;35.72;20.92;;;4.80;99.90;;;;;;4996278;28;20078;-63
2021/12/12 04:39:58;;;;;;;38.45;21.45;;;4.80;99.90;;;;;;4991345;28;20073;-63
2021/12/12 04:42:27;;;;;;;35.53;20.95;;;4.80;99.90;;;;;;4969013;28;20038;-63
2021/12/12 04:45:06;;;;;;;29.67;19.65;;;4.80;99.90;;;;;;4987242;28;20152;-64
2021/12/12 04:50:44;;;;;;;31.52;19.17;;;4.90;99.90;;;;;;4978585;28;20943;-64
2021/12/12 04:53:18;;;;;;;29.98;18.83;;;4.80;99.90;;;;;;4977377;28;20050;-65
2021/12/12 04:56:29;;;;;;;28.35;19.65;;;4.90;99.90;;;;;;4978737;28;20042;-64
2021/12/12 04:59:21;;;;;;;29.50;18.77;;;4.90;99.90;;;;;;4978992;28;20064;-63
2021/12/12 05:02:11;;;;;;;24.55;17.13;;;4.90;99.90;;;;;;4968890;28;20382;-65
2021/12/12 05:04:52;;;;;;;26.75;18.17;;;4.90;99.90;;;;;;4984308;28;20042;-63
2021/12/12 05:07:37;;;;;;;29.50;17.63;;;4.90;99.90;;;;;;4978160;28;20037;-65
2021/12/12 05:10:12;;;;;;;26.92;16.83;;;4.90;99.90;;;;;;4978609;28;20046;-63
2021/12/12 05:12:45;;;;;;;25.60;16.95;;;4.90;99.90;;;;;;4979608;28;20535;-64
2021/12/12 05:15:18;;;;;;;23.55;16.35;;;4.90;99.90;;;;;;4976179;28;20057;-63
2021/12/12 05:18:12;;;;;;;22.17;16.35;;;5.00;99.90;;;;;;4964720;28;20061;-63
2021/12/12 05:20:43;;;;;;;22.27;15.02;;;5.00;99.90;;;;;;4959486;28;20046;-63
2021/12/12 05:23:14;;;;;;;23.80;16.13;;;5.00;99.90;;;;;;4967315;28;20050;-65
2021/12/12 05:25:50;;;;;;;21.15;15.00;;;5.00;99.90;;;;;;4980982;28;20046;-63
2021/12/12 05:28:30;;;;;;;21.23;14.70;;;5.00;99.90;;;;;;4964224;28;20057;-63
2021/12/12 05:31:00;;;;;;;23.75;14.50;;;5.00;99.90;;;;;;4966535;28;20614;-63
2021/12/12 05:33:29;;;;;;;20.88;14.38;;;5.10;99.90;;;;;;4984580;28;20065;-63
2021/12/12 05:35:56;;;;;;;20.25;14.70;;;5.00;99.90;;;;;;4979693;28;20115;-63
2021/12/12 05:38:23;;;;;;;20.83;15.07;;;5.10;99.90;;;;;;4984065;28;20456;-64
2021/12/12 05:40:50;;;;;;;23.30;14.65;;;5.10;99.90;;;;;;4993581;28;20034;-65
2021/12/12 05:43:17;;;;;;;26.42;16.60;;;5.10;99.90;;;;;;4994979;28;20050;-63
2021/12/12 05:45:45;;;;;;;25.92;16.98;;;5.10;99.90;;;;;;4983516;28;20043;-64
2021/12/12 05:48:11;;;;;;;31.58;18.63;;;5.20;99.90;;;;;;4985508;28;20117;-64
2021/12/12 05:50:39;;;;;;;31.55;18.83;;;5.20;99.90;;;;;;4978217;28;20128;-63
2021/12/12 05:53:07;;;;;;;33.30;19.15;;;5.20;99.90;;;;;;4963732;28;20046;-64
2021/12/12 05:55:35;;;;;;;28.77;19.63;;;5.20;99.90;;;;;;4948872;28;20050;-63
2021/12/12 05:58:06;;;;;;;29.33;18.88;;;5.20;99.90;;;;;;4981578;28;20043;-64
2021/12/12 06:00:41;;;;;;;28.30;20.40;;;5.30;99.90;;;;;;4970879;28;20050;-63
2021/12/12 06:03:09;;;;;;;31.33;19.30;;;5.30;99.90;;;;;;4979595;28;20046;-63
2021/12/12 06:05:36;;;;;;;32.97;21.98;;;5.30;99.90;;;;;;4978778;28;20053;-65
2021/12/12 06:08:04;;;;;;;35.22;21.52;;;5.40;99.90;;;;;;4993321;28;20046;-63
2021/12/12 06:10:32;;;;;;;36.65;22.38;;;5.40;99.90;;;;;;4950177;28;20046;-63
2021/12/12 06:12:59;;;;;;;35.28;22.88;;;5.40;99.90;;;;;;4983997;28;20060;-64
2021/12/12 06:15:28;;;;;;;34.13;21.67;;;5.40;99.90;;;;;;4974340;28;20120;-63
2021/12/12 06:17:55;;;;;;;27.70;18.67;;;5.40;99.90;;;;;;4995259;28;20060;-63
2021/12/12 06:20:22;;;;;;;35.78;21.50;;;5.40;99.90;;;;;;4982596;28;20038;-63
2021/12/12 06:22:48;;;;;;;36.78;21.38;;;5.40;99.90;;;;;;4963753;28;20053;-64
2021/12/12 06:25:15;;;;;;;40.25;24.35;;;5.40;99.90;;;;;;4979900;28;20502;-64
2021/12/12 06:27:41;;;;;;;33.60;22.08;;;5.40;99.90;;;;;;4979584;28;20499;-63
2021/12/12 06:30:11;;;;;;;40.85;24.15;;;5.40;99.90;;;;;;4963231;28;20054;-63
2021/12/12 06:32:37;;;;;;;38.35;22.77;;;5.50;99.90;;;;;;4975409;28;20099;-65
2021/12/12 06:35:05;;;;;;;28.58;19.50;;;5.50;99.90;;;;;;4962017;28;20053;-63
2021/12/12 06:37:33;;;;;;;32.47;19.90;;;5.50;99.90;;;;;;4984079;28;20115;-63
2021/12/12 06:39:59;;;;;;;39.47;23.52;;;5.50;99.90;;;;;;4963626;28;20045;-64
2021/12/12 06:42:27;;;;;;;42.97;25.38;;;5.50;99.90;;;;;;4984900;28;20037;-63
2021/12/12 06:44:53;;;;;;;41.25;25.38;;;5.60;99.90;;;;;;4983659;28;20072;-63
2021/12/12 06:47:19;;;;;;;39.30;23.48;;;5.50;99.90;;;;;;4985163;28;20046;-63
2021/12/12 06:49:46;;;;;;;33.70;21.70;;;5.60;99.90;;;;;;4968338;28;20045;-63
2021/12/12 06:52:14;;;;;;;33.50;20.02;;;5.70;99.90;;;;;;4979228;28;20046;-63
2021/12/12 06:54:40;;;;;;;35.03;20.73;;;5.70;99.90;;;;;;4984564;28;20104;-63
2021/12/12 06:57:12;;;;;;;28.77;18.67;;;5.70;99.90;;;;;;4994853;28;20594;-62
2021/12/12 06:59:39;;;;;;;30.65;18.80;;;5.70;99.90;;;;;;4983469;28;20050;-63
2021/12/12 07:02:07;;;;;;;31.38;19.95;;;5.70;99.90;;;;;;4975723;28;20046;-63
2021/12/12 07:04:34;;;;;;;36.60;21.40;;;5.70;99.90;;;;;;4973717;28;20037;-64
2021/12/12 07:07:02;;;;;;;38.30;23.52;;;5.80;99.90;;;;;;4965452;28;20498;-65
2021/12/12 07:09:33;;;;;;;36.55;22.13;;;5.80;99.90;;;;;;4979250;28;20052;-63
2021/12/12 07:12:06;;;;;;;35.53;21.35;;;5.80;99.90;;;;;;4984039;28;20108;-63
2021/12/12 07:14:33;;;;;;;34.08;21.90;;;5.80;99.90;;;;;;4978622;28;20050;-62
2021/12/12 07:17:00;;;;;;;44.53;24.80;;;5.80;99.90;;;;;;4993323;28;20047;-63
2021/12/12 07:19:26;;;;;;;38.58;22.52;;;5.80;99.90;;;;;;4962500;28;20041;-63
2021/12/12 07:21:52;;;;;;;42.15;23.95;;;5.80;99.90;;;;;;4982448;28;20097;-63
2021/12/12 07:24:20;;;;;;;41.08;23.77;;;5.80;99.90;;;;;;4964805;28;20046;-63
2021/12/12 07:26:46;;;;;;;39.17;22.35;;;5.90;99.90;;;;;;4984317;28;20084;-63
2021/12/12 07:29:13;;;;;;;37.35;21.30;;;5.90;99.90;;;;;;4949445;28;20913;-63
2021/12/12 07:31:43;;;;;;;37.42;21.88;;;5.90;99.90;;;;;;4983169;28;20049;-63
2021/12/12 07:34:11;;;;;;;39.22;22.67;;;5.90;99.90;;;;;;4975955;28;20065;-63
2021/12/12 07:36:42;;;;;;;41.78;22.13;;;5.90;99.90;;;;;;4966745;28;20485;-63
2021/12/12 07:39:12;;;;;;;38.53;20.95;;;5.90;99.90;;;;;;4983961;28;20085;-64
2021/12/12 07:41:40;;;;;;;36.78;20.73;;;5.90;99.90;;;;;;4994848;28;20043;-63
2021/12/12 07:44:08;;;;;;;38.60;21.33;;;5.90;99.90;;;;;;4996957;28;20053;-63
2021/12/12 07:46:35;;;;;;;37.47;21.10;;;5.90;99.90;;;;;;4980664;28;20487;-63
2021/12/12 07:49:03;;;;;;;37.45;20.85;;;6.00;99.90;;;;;;4998027;28;20069;-63
2021/12/12 07:51:31;;;;;;;40.47;21.83;;;6.00;99.90;;;;;;4965175;28;20519;-63
2021/12/12 07:54:01;;;;;;;38.38;20.67;;;6.00;99.90;;;;;;4966021;28;20077;-63
2021/12/12 07:56:31;;;;;;;41.40;22.27;;;6.00;99.90;;;;;;4986624;28;20153;-64
2021/12/12 07:58:59;;;;;;;37.55;21.75;;;6.00;99.90;;;;;;4997647;28;20112;-63
2021/12/12 08:01:27;;;;;;;37.28;21.50;;;6.00;99.90;;;;;;4972544;28;20050;-63
2021/12/12 08:03:54;;;;;;;40.33;21.48;;;6.10;99.90;;;;;;4995556;28;20042;-63
2021/12/12 08:06:20;;;;;;;40.17;21.05;;;6.10;99.90;;;;;;4969078;28;20045;-64
2021/12/12 08:08:47;;;;;;;41.90;21.75;;;6.00;99.90;;;;;;4986233;28;20116;-64
2021/12/12 08:11:25;;;;;;;42.92;22.77;;;6.00;99.90;;;;;;4986415;28;20141;-63
2021/12/12 08:13:51;;;;;;;48.45;22.88;;;6.10;99.90;;;;;;4965239;28;20049;-63
2021/12/12 08:16:19;;;;;;;42.55;22.80;;;6.10;99.90;;;;;;4963021;28;20089;-64
2021/12/12 08:18:48;;;;;;;44.67;22.45;;;6.10;99.90;;;;;;4974683;28;20039;-63
2021/12/12 08:21:15;;;;;;;44.25;23.42;;;6.10;99.90;;;;;;4974919;28;20363;-63
2021/12/12 08:23:42;;;;;;;44.50;22.20;;;6.10;99.90;;;;;;4978150;28;20058;-63
2021/12/12 08:26:10;;;;;;;43.05;22.80;;;6.20;99.90;;;;;;4978876;28;20046;-63
2021/12/12 08:28:40;;;;;;;48.72;24.73;;;6.20;99.90;;;;;;4984859;28;20045;-65
2021/12/12 08:31:07;;;;;;;50.53;24.45;;;6.20;99.90;;;;;;4983038;28;20131;-63
2021/12/12 08:33:33;;;;;;;51.97;24.20;;;6.30;99.90;;;;;;4963514;28;20482;-63
2021/12/12 08:36:01;;;;;;;47.50;23.90;;;6.30;99.90;;;;;;4992709;28;20057;-65
2021/12/12 08:38:27;;;;;;;46.13;23.17;;;6.30;99.90;;;;;;4975809;28;20131;-65
2021/12/12 08:40:56;;;;;;;53.33;24.83;;;6.30;99.90;;;;;;4994319;28;20523;-65
2021/12/12 08:43:26;;;;;;;51.78;24.65;;;6.30;99.90;;;;;;4978844;28;20046;-65
2021/12/12 08:46:05;;;;;;;50.83;24.45;;;6.30;99.90;;;;;;4979688;28;20041;-63
2021/12/12 08:48:35;;;;;;;54.90;24.80;;;6.30;99.90;;;;;;4982174;28;20054;-63
2021/12/12 08:51:11;;;;;;;54.38;25.92;;;6.30;99.90;;;;;;4979537;28;20049;-63
2021/12/12 08:53:39;;;;;;;55.83;25.15;;;6.30;99.90;;;;;;4977642;28;20053;-65
2021/12/12 08:56:08;;;;;;;52.92;24.73;;;6.40;99.90;;;;;;4993483;28;20050;-63
2021/12/12 08:58:35;;;;;;;54.95;25.30;;;6.40;99.90;;;;;;4953094;28;20057;-63
2021/12/12 09:01:10;;;;;;;58.65;25.35;;;6.40;99.90;;;;;;4955725;28;20124;-64
2021/12/12 09:03:59;;;;;;;55.47;26.40;;;6.40;99.90;;;;;;4969434;28;20478;-63
2021/12/12 09:06:32;;;;;;;65.07;27.38;;;6.40;99.90;;;;;;4969406;28;20097;-64
2021/12/12 09:09:10;;;;;;;68.32;27.30;;;6.50;99.90;;;;;;4971460;28;20050;-64
2021/12/12 09:11:54;;;;;;;65.55;28.20;;;6.50;99.90;;;;;;4964468;28;20049;-63
2021/12/12 09:14:45;;;;;;;64.90;26.80;;;6.50;99.90;;;;;;4986828;28;20128;-63
2021/12/12 09:17:27;;;;;;;70.18;28.20;;;6.50;99.90;;;;;;4983243;28;20456;-63
2021/12/12 09:19:56;;;;;;;68.68;27.98;;;6.60;99.90;;;;;;4978585;28;20069;-65
2021/12/12 09:22:30;;;;;;;80.68;30.15;;;6.60;99.90;;;;;;4985257;28;20568;-63
2021/12/12 09:25:15;;;;;;;72.30;29.08;;;6.60;99.90;;;;;;4972552;28;20540;-63
2021/12/12 09:27:44;;;;;;;81.53;30.65;;;6.60;99.90;;;;;;4969947;28;20461;-62
2021/12/12 09:30:17;;;;;;;85.72;29.98;;;6.70;99.90;;;;;;4980132;28;20120;-63
2021/12/12 09:32:59;;;;;;;;;;;6.70;99.90;;;;;;4982957;28;20049;-65
2021/12/12 09:35:37;;;;;;;89.45;31.23;;;6.70;99.90;;;;;;4978923;28;19952;-65
2021/12/12 09:38:06;;;;;;;94.05;31.70;;;6.70;99.90;;;;;;4964312;28;20042;-63
2021/12/12 09:41:03;;;;;;;118.00;34.38;;;6.80;99.90;;;;;;4979057;28;20042;-65
2021/12/12 09:43:38;;;;;;;99.22;33.35;;;6.80;99.90;;;;;;4985649;28;20359;-63
2021/12/12 09:46:28;;;;;;;118.45;35.85;;;6.90;99.90;;;;;;4978387;28;20362;-63
2021/12/12 09:52:54;;;;;;;120.22;35.15;;;6.90;99.90;;;;;;4965790;28;20053;-63
2021/12/12 09:55:57;;;;;;;118.13;34.65;;;6.90;99.90;;;;;;4985414;28;20046;-63
2021/12/12 09:58:36;;;;;;;123.97;35.97;;;7.00;99.90;;;;;;4974841;28;20061;-64
2021/12/12 10:01:05;;;;;;;146.25;38.45;;;7.00;99.90;;;;;;4977150;28;20046;-63
2021/12/12 10:03:46;;;;;;;150.68;38.83;;;7.10;99.90;;;;;;4980251;28;20038;-63
2021/12/12 10:06:20;;;;;;;134.02;38.42;;;7.10;99.90;;;;;;4979208;28;20084;-63
2021/12/12 10:09:01;;;;;;;138.23;38.63;;;7.10;99.90;;;;;;4984423;28;20113;-63
2021/12/12 10:11:59;;;;;;;140.65;38.33;;;7.20;99.90;;;;;;4969590;28;20050;-63
2021/12/12 10:14:45;;;;;;;144.60;39.13;;;7.20;99.90;;;;;;4985605;28;20129;-63
2021/12/12 10:17:36;;;;;;;151.18;38.05;;;7.20;99.90;;;;;;4976715;28;20702;-63
2021/12/12 10:20:11;;;;;;;152.77;40.42;;;7.30;99.90;;;;;;4979820;28;20512;-65
2021/12/12 10:23:14;;;;;;;165.93;41.72;;;7.30;99.90;;;;;;4982854;28;20477;-63
2021/12/12 10:25:59;;;;;;;;;;;7.30;99.90;;;;;;4986485;28;20042;-63
2021/12/12 10:28:33;;;;;;;143.13;38.70;;;7.40;99.90;;;;;;4976721;28;20422;-62
2021/12/12 10:31:11;;;;;;;131.07;36.80;;;7.40;99.90;;;;;;4978576;28;20062;-63
2021/12/12 10:33:46;;;;;;;141.23;38.00;;;7.50;99.90;;;;;;4978628;28;20415;-64
2021/12/12 10:36:38;;;;;;;157.05;40.53;;;7.50;99.90;;;;;;4979540;28;20129;-65
2021/12/12 10:39:28;;;;;;;151.40;39.33;;;7.50;99.90;;;;;;4979661;28;20583;-63
2021/12/12 10:42:05;;;;;;;165.32;38.72;;;7.60;99.90;;;;;;4979678;28;20125;-63
2021/12/12 10:44:46;;;;;;;139.65;36.95;;;7.60;99.90;;;;;;4987440;28;20073;-63
2021/12/12 10:47:15;;;;;;;131.95;37.13;;;7.70;99.90;;;;;;4986074;28;20049;-63
2021/12/12 10:49:55;;;;;;;138.50;37.60;;;7.70;99.90;;;;;;4978740;28;20104;-62
2021/12/12 10:52:43;;;;;;;148.80;36.95;;;7.80;99.90;;;;;;4978845;28;20077;-63
2021/12/12 10:55:39;;;;;;;160.85;38.00;;;7.90;99.90;;;;;;4985528;28;20104;-63
2021/12/12 10:58:27;;;;;;;144.30;37.38;;;7.90;99.90;;;;;;4978816;28;20050;-63
2021/12/12 11:01:01;;;;;;;138.52;36.72;;;7.90;99.90;;;;;;4950186;28;20046;-63
2021/12/12 11:04:06;;;;;;;136.52;35.72;;;8.00;99.90;;;;;;4978817;28;20038;-63
2021/12/12 11:06:46;;;;;;;112.10;33.30;;;8.00;99.90;;;;;;4979790;28;20046;-63
2021/12/12 11:09:30;;;;;;;115.55;32.95;;;8.10;99.90;;;;;;4983473;28;20050;-64
2021/12/12 11:12:06;;;;;;;129.65;34.95;;;8.10;99.90;;;;;;4977088;28;20053;-63
2021/12/12 11:14:41;;;;;;;119.38;34.40;;;8.10;99.90;;;;;;4983601;28;20132;-63
2021/12/12 11:17:17;;;;;;;129.30;34.38;;;8.20;99.90;;;;;;4978670;28;20049;-63
2021/12/12 11:19:53;;;;;;;115.10;32.95;;;8.20;99.90;;;;;;4982483;28;20053;-63
2021/12/12 11:22:50;;;;;;;110.97;32.80;;;8.20;99.90;;;;;;5002039;28;20531;-64
2021/12/12 11:25:23;;;;;;;99.40;30.45;;;8.30;99.90;;;;;;4983523;28;20061;-63
2021/12/12 11:27:57;;;;;;;105.03;31.15;;;8.40;99.90;;;;;;4971838;28;20061;-63
2021/12/12 11:30:34;;;;;;;101.70;29.42;;;8.40;99.90;;;;;;4986638;28;20062;-63
2021/12/12 11:33:03;;;;;;;97.93;28.15;;;8.40;99.90;;;;;;4981616;28;20046;-63
2021/12/12 11:35:30;;;;;;;91.43;27.30;;;8.50;99.90;;;;;;4994429;28;20050;-64
2021/12/12 11:38:12;;;;;;;96.03;28.75;;;8.50;99.90;;;;;;4986765;28;20501;-65
2021/12/12 11:40:46;;;;;;;91.82;27.95;;;8.60;99.90;;;;;;4971334;28;20124;-63
2021/12/12 11:43:17;;;;;;;94.38;29.17;;;8.60;99.90;;;;;;4983869;28;20097;-63
2021/12/12 11:46:00;;;;;;;105.38;29.70;;;8.60;99.90;;;;;;4986441;28;20049;-63
2021/12/12 11:48:45;;;;;;;102.63;28.20;;;8.70;99.90;;;;;;4963846;28;20054;-63
2021/12/12 11:51:16;;;;;;;81.82;26.63;;;8.70;99.90;;;;;;4983254;28;20046;-63
2021/12/12 11:53:52;;;;;;;91.60;27.83;;;8.70;99.90;;;;;;4981710;28;20045;-63
2021/12/12 11:56:21;;;;;;;69.95;25.27;;;8.70;99.90;;;;;;4998622;28;20042;-63
2021/12/12 11:59:11;;;;;;;73.25;23.88;;;8.70;99.90;;;;;;4996920;28;20054;-63
2021/12/12 12:01:46;;;;;;;66.97;24.42;;;8.80;99.90;;;;;;4948701;28;20045;-63
2021/12/12 12:04:35;;;;;;;65.53;24.17;;;8.80;99.90;;;;;;4977744;28;20053;-64
2021/12/12 12:07:17;;;;;;;74.80;23.60;;;8.90;99.90;;;;;;4963465;28;20044;-63
2021/12/12 12:10:10;;;;;;;71.63;24.08;;;8.90;99.90;;;;;;4971665;28;20041;-63
2021/12/12 12:12:52;;;;;;;61.88;23.35;;;8.90;99.90;;;;;;4964264;28;20100;-64
2021/12/12 12:15:49;;;;;;;69.07;23.60;;;9.00;99.90;;;;;;4963273;28;20097;-64
2021/12/12 12:18:46;;;;;;;62.88;22.50;;;9.00;99.90;;;;;;4975476;28;20117;-65
2021/12/12 12:21:24;;;;;;;66.25;23.40;;;9.00;99.90;;;;;;4960333;28;20468;-63
2021/12/12 12:27:03;;;;;;;56.80;21.95;;;9.00;99.90;;;;;;4986333;28;20081;-63
2021/12/12 12:29:31;;;;;;;53.95;20.60;;;9.00;99.90;;;;;;4960066;28;20152;-63
2021/12/12 12:32:38;;;;;;;56.38;20.92;;;8.90;99.90;;;;;;4977502;28;20042;-63
2021/12/12 12:35:19;;;;;;;;;;;9.00;99.90;;;;;;4985083;28;20416;-65
2021/12/12 12:38:22;;;;;;;53.53;21.80;;;9.00;99.90;;;;;;4981877;28;19932;-63
2021/12/12 12:41:33;;;;;;;53.05;20.67;;;9.00;99.90;;;;;;4981020;28;20732;-63
2021/12/12 12:44:41;;;;;;;51.00;20.30;;;9.00;99.90;;;;;;4936253;28;20042;-63
2021/12/12 12:47:41;;;;;;;57.60;20.70;;;9.00;99.90;;;;;;4947388;28;20081;-64
2021/12/12 12:50:42;;;;;;;48.15;19.02;;;9.00;99.90;;;;;;4978108;28;20050;-65
2021/12/12 12:53:29;;;;;;;53.95;20.33;;;9.00;99.90;;;;;;4987387;28;20095;-63
2021/12/12 12:56:29;;;;;;;54.75;19.77;;;9.00;99.90;;;;;;4979869;28;20057;-64
2021/12/12 12:58:54;;;;;;;53.03;20.08;;;9.00;99.90;;;;;;4990515;28;20046;-63
2021/12/12 13:01:25;;;;;;;48.63;19.30;;;9.00;99.90;;;;;;4967654;28;20374;-63
2021/12/12 13:04:24;;;;;;;57.00;20.63;;;9.00;99.90;;;;;;4994271;28;20588;-63
2021/12/12 13:07:29;;;;;;;55.35;20.45;;;9.00;99.90;;;;;;4995757;28;20129;-63
2021/12/12 13:10:09;;;;;;;52.17;20.10;;;9.00;99.90;;;;;;4921250;28;20493;-63
2021/12/12 13:12:38;;;;;;;56.80;21.92;;;9.00;99.90;;;;;;4960105;28;20057;-64
2021/12/12 13:15:22;;;;;;;55.63;22.73;;;9.00;99.90;;;;;;4979965;28;20045;-63
2021/12/12 13:17:59;;;;;;;64.03;22.67;;;9.10;99.90;;;;;;4976343;28;20048;-63
2021/12/12 13:20:41;;;;;;;52.45;22.75;;;9.10;99.90;;;;;;4994817;28;20037;-63
2021/12/12 13:23:28;;;;;;;53.38;21.65;;;9.10;99.90;;;;;;4979568;28;20100;-65
2021/12/12 13:26:03;;;;;;;57.78;24.45;;;9.10;99.90;;;;;;4985752;28;20037;-63
2021/12/12 13:28:47;;;;;;;54.97;22.67;;;9.10;99.90;;;;;;4986680;28;20054;-63
2021/12/12 13:31:41;;;;;;;59.00;25.42;;;9.10;99.90;;;;;;4975946;28;20066;-63
2021/12/12 13:34:24;;;;;;;64.05;29.17;;;9.10;99.90;;;;;;4978451;28;20126;-63
2021/12/12 13:37:06;;;;;;;54.15;23.67;;;9.10;99.90;;;;;;4984807;28;20057;-63
2021/12/12 13:40:02;;;;;;;49.13;21.77;;;9.20;99.90;;;;;;4975274;28;20740;-63